sensor_id;sensor_type;location;lat;lon;timestamp;P1;durP1;ratioP1;P2;durP2;ratioP2
64597;SDS011;51004;54.692;9.332;2023-02-11T00:00:31;41.67;;;8.63;;
64597;SDS011;51004;54.692;9.332;2023-02-11T00:02:57;50.45;;;10.32;;
64597;SDS011;51004;54.692;9.332;2023-02-11T00:05:23;56.75;;;10.02;;
64597;SDS011;51004;54.692;9.332;2023-02-11T00:07:49;49.42;;;10.27;;
64597;SDS011;51004;54.692;9.332;2023-02-11T00:10:16;47.50;;;8.77;;
64597;SDS011;51004;54.692;9.332;2023-02-11T00:12:42;50.25;;;9.85;;
64597;SDS011;51004;54.692;9.332;2023-02-11T00:15:08;45.75;;;9.35;;
64597;SDS011;51004;54.692;9.332;2023-02-11T00:17:34;45.72;;;9.52;;
64597;SDS011;51004;54.692;9.332;2023-02-11T00:20:00;45.67;;;10.00;;
64597;SDS011;51004;54.692;9.332;2023-02-11T00:22:27;46.95;;;9.55;;
64597;SDS011;51004;54.692;9.332;2023-02-11T00:24:53;48.00;;;9.27;;
64597;SDS011;51004;54.692;9.332;2023-02-11T00:27:21;48.38;;;9.77;;
64597;SDS011;51004;54.692;9.332;2023-02-11T00:29:46;51.58;;;10.10;;
64597;SDS011;51004;54.692;9.332;2023-02-11T00:32:13;55.50;;;12.52;;
64597;SDS011;51004;54.692;9.332;2023-02-11T00:34:39;48.13;;;9.88;;
64597;SDS011;51004;54.692;9.332;2023-02-11T00:37:05;46.00;;;8.93;;
64597;SDS011;51004;54.692;9.332;2023-02-11T00:39:31;40.67;;;9.57;;
64597;SDS011;51004;54.692;9.332;2023-02-11T00:41:57;64.78;;;10.52;;
64597;SDS011;51004;54.692;9.332;2023-02-11T00:44:23;51.42;;;9.63;;
64597;SDS011;51004;54.692;9.332;2023-02-11T00:46:49;47.45;;;9.15;;
64597;SDS011;51004;54.692;9.332;2023-02-11T00:49:15;49.00;;;10.88;;
64597;SDS011;51004;54.692;9.332;2023-02-11T00:51:41;41.03;;;8.60;;
64597;SDS011;51004;54.692;9.332;2023-02-11T00:54:07;45.67;;;9.57;;
64597;SDS011;51004;54.692;9.332;2023-02-11T00:56:34;56.50;;;10.93;;
64597;SDS011;51004;54.692;9.332;2023-02-11T00:59:00;53.20;;;9.38;;
64597;SDS011;51004;54.692;9.332;2023-02-11T01:01:25;43.78;;;9.95;;
64597;SDS011;51004;54.692;9.332;2023-02-11T01:03:51;33.40;;;8.18;;
64597;SDS011;51004;54.692;9.332;2023-02-11T01:06:17;49.83;;;10.00;;
64597;SDS011;51004;54.692;9.332;2023-02-11T01:08:43;48.67;;;10.05;;
64597;SDS011;51004;54.692;9.332;2023-02-11T01:11:11;48.22;;;9.52;;
64597;SDS011;51004;54.692;9.332;2023-02-11T01:13:37;48.15;;;10.95;;
64597;SDS011;51004;54.692;9.332;2023-02-11T01:16:05;49.72;;;11.63;;
64597;SDS011;51004;54.692;9.332;2023-02-11T01:18:32;46.85;;;10.73;;
64597;SDS011;51004;54.692;9.332;2023-02-11T01:20:58;49.97;;;9.70;;
64597;SDS011;51004;54.692;9.332;2023-02-11T01:23:24;45.88;;;9.95;;
64597;SDS011;51004;54.692;9.332;2023-02-11T01:25:50;45.40;;;9.40;;
64597;SDS011;51004;54.692;9.332;2023-02-11T01:28:17;45.80;;;9.25;;
64597;SDS011;51004;54.692;9.332;2023-02-11T01:30:44;52.75;;;9.68;;
64597;SDS011;51004;54.692;9.332;2023-02-11T01:33:10;40.78;;;10.10;;
64597;SDS011;51004;54.692;9.332;2023-02-11T01:35:39;48.92;;;10.73;;
64597;SDS011;51004;54.692;9.332;2023-02-11T01:38:06;39.38;;;8.50;;
64597;SDS011;51004;54.692;9.332;2023-02-11T01:40:32;58.58;;;10.38;;
64597;SDS011;51004;54.692;9.332;2023-02-11T01:42:58;52.63;;;11.60;;
64597;SDS011;51004;54.692;9.332;2023-02-11T01:48:11;68.82;;;13.25;;
64597;SDS011;51004;54.692;9.332;2023-02-11T01:50:38;48.17;;;10.27;;
64597;SDS011;51004;54.692;9.332;2023-02-11T01:53:05;45.33;;;8.68;;
64597;SDS011;51004;54.692;9.332;2023-02-11T01:55:50;53.78;;;9.02;;
64597;SDS011;51004;54.692;9.332;2023-02-11T01:58:36;44.15;;;9.40;;
64597;SDS011;51004;54.692;9.332;2023-02-11T02:01:03;50.92;;;8.23;;
64597;SDS011;51004;54.692;9.332;2023-02-11T02:03:29;52.08;;;9.13;;
64597;SDS011;51004;54.692;9.332;2023-02-11T02:08:33;38.85;;;9.57;;
64597;SDS011;51004;54.692;9.332;2023-02-11T02:11:01;45.97;;;9.40;;
64597;SDS011;51004;54.692;9.332;2023-02-11T02:13:28;49.53;;;10.18;;
64597;SDS011;51004;54.692;9.332;2023-02-11T02:15:56;37.75;;;7.93;;
64597;SDS011;51004;54.692;9.332;2023-02-11T02:23:42;48.90;;;10.20;;
64597;SDS011;51004;54.692;9.332;2023-02-11T02:29:18;45.83;;;9.70;;
64597;SDS011;51004;54.692;9.332;2023-02-11T02:34:18;42.20;;;9.45;;
64597;SDS011;51004;54.692;9.332;2023-02-11T02:36:53;49.20;;;10.50;;
64597;SDS011;51004;54.692;9.332;2023-02-11T02:39:23;52.35;;;11.43;;
64597;SDS011;51004;54.692;9.332;2023-02-11T02:41:49;44.08;;;9.48;;
64597;SDS011;51004;54.692;9.332;2023-02-11T02:44:17;43.38;;;9.85;;
64597;SDS011;51004;54.692;9.332;2023-02-11T02:46:43;38.83;;;9.25;;
64597;SDS011;51004;54.692;9.332;2023-02-11T02:49:13;45.08;;;9.40;;
64597;SDS011;51004;54.692;9.332;2023-02-11T03:02:12;35.70;;;7.90;;
64597;SDS011;51004;54.692;9.332;2023-02-11T03:05:03;48.70;;;10.23;;
64597;SDS011;51004;54.692;9.332;2023-02-11T03:10:13;38.30;;;9.15;;
64597;SDS011;51004;54.692;9.332;2023-02-11T03:12:40;43.47;;;10.57;;
64597;SDS011;51004;54.692;9.332;2023-02-11T03:15:07;52.28;;;10.93;;
64597;SDS011;51004;54.692;9.332;2023-02-11T03:17:33;37.08;;;9.20;;
64597;SDS011;51004;54.692;9.332;2023-02-11T03:20:01;52.50;;;10.55;;
64597;SDS011;51004;54.692;9.332;2023-02-11T03:22:32;61.78;;;11.32;;
64597;SDS011;51004;54.692;9.332;2023-02-11T03:24:59;43.75;;;9.57;;
64597;SDS011;51004;54.692;9.332;2023-02-11T03:27:28;36.80;;;8.57;;
64597;SDS011;51004;54.692;9.332;2023-02-11T03:29:59;41.05;;;9.27;;
64597;SDS011;51004;54.692;9.332;2023-02-11T03:32:27;53.05;;;11.13;;
64597;SDS011;51004;54.692;9.332;2023-02-11T03:34:54;49.40;;;9.43;;
64597;SDS011;51004;54.692;9.332;2023-02-11T03:40:05;43.75;;;8.32;;
64597;SDS011;51004;54.692;9.332;2023-02-11T03:42:38;40.95;;;8.73;;
64597;SDS011;51004;54.692;9.332;2023-02-11T03:47:32;49.38;;;9.90;;
64597;SDS011;51004;54.692;9.332;2023-02-11T03:50:00;49.00;;;9.35;;
64597;SDS011;51004;54.692;9.332;2023-02-11T03:52:27;44.53;;;8.10;;
64597;SDS011;51004;54.692;9.332;2023-02-11T03:54:54;45.67;;;8.75;;
64597;SDS011;51004;54.692;9.332;2023-02-11T03:57:21;47.28;;;9.82;;
64597;SDS011;51004;54.692;9.332;2023-02-11T03:59:48;52.97;;;8.90;;
64597;SDS011;51004;54.692;9.332;2023-02-11T04:02:14;41.78;;;8.75;;
64597;SDS011;51004;54.692;9.332;2023-02-11T04:04:40;37.45;;;8.48;;
64597;SDS011;51004;54.692;9.332;2023-02-11T04:07:06;36.45;;;7.43;;
64597;SDS011;51004;54.692;9.332;2023-02-11T04:09:32;44.40;;;9.07;;
64597;SDS011;51004;54.692;9.332;2023-02-11T04:12:00;42.17;;;8.75;;
64597;SDS011;51004;54.692;9.332;2023-02-11T04:14:26;57.15;;;7.50;;
64597;SDS011;51004;54.692;9.332;2023-02-11T04:16:52;48.72;;;8.27;;
64597;SDS011;51004;54.692;9.332;2023-02-11T04:19:18;39.28;;;7.93;;
64597;SDS011;51004;54.692;9.332;2023-02-11T04:21:43;44.08;;;8.00;;
64597;SDS011;51004;54.692;9.332;2023-02-11T04:24:09;45.15;;;7.60;;
64597;SDS011;51004;54.692;9.332;2023-02-11T04:26:35;39.58;;;8.35;;
64597;SDS011;51004;54.692;9.332;2023-02-11T04:29:01;35.40;;;6.63;;
64597;SDS011;51004;54.692;9.332;2023-02-11T04:31:27;41.75;;;7.70;;
64597;SDS011;51004;54.692;9.332;2023-02-11T04:33:53;43.67;;;8.30;;
64597;SDS011;51004;54.692;9.332;2023-02-11T04:36:19;36.75;;;7.13;;
64597;SDS011;51004;54.692;9.332;2023-02-11T04:38:45;32.00;;;7.03;;
64597;SDS011;51004;54.692;9.332;2023-02-11T04:41:11;38.65;;;8.65;;
64597;SDS011;51004;54.692;9.332;2023-02-11T04:43:37;35.67;;;7.03;;
64597;SDS011;51004;54.692;9.332;2023-02-11T04:46:03;32.92;;;6.90;;
64597;SDS011;51004;54.692;9.332;2023-02-11T04:48:29;39.30;;;6.80;;
64597;SDS011;51004;54.692;9.332;2023-02-11T04:50:55;37.85;;;7.38;;
64597;SDS011;51004;54.692;9.332;2023-02-11T04:53:21;43.80;;;7.20;;
64597;SDS011;51004;54.692;9.332;2023-02-11T04:55:48;41.58;;;7.35;;
64597;SDS011;51004;54.692;9.332;2023-02-11T04:58:14;35.55;;;7.15;;
64597;SDS011;51004;54.692;9.332;2023-02-11T05:00:40;38.90;;;7.65;;
64597;SDS011;51004;54.692;9.332;2023-02-11T05:03:06;37.03;;;6.47;;
64597;SDS011;51004;54.692;9.332;2023-02-11T05:05:32;41.20;;;7.03;;
64597;SDS011;51004;54.692;9.332;2023-02-11T05:07:58;42.45;;;7.43;;
64597;SDS011;51004;54.692;9.332;2023-02-11T05:10:24;41.63;;;8.18;;
64597;SDS011;51004;54.692;9.332;2023-02-11T05:12:51;35.92;;;6.70;;
64597;SDS011;51004;54.692;9.332;2023-02-11T05:15:17;37.90;;;6.68;;
64597;SDS011;51004;54.692;9.332;2023-02-11T05:17:43;43.03;;;6.45;;
64597;SDS011;51004;54.692;9.332;2023-02-11T05:20:09;37.65;;;5.97;;
64597;SDS011;51004;54.692;9.332;2023-02-11T05:22:35;35.40;;;7.28;;
64597;SDS011;51004;54.692;9.332;2023-02-11T05:25:01;42.55;;;6.47;;
64597;SDS011;51004;54.692;9.332;2023-02-11T05:27:27;45.08;;;6.80;;
64597;SDS011;51004;54.692;9.332;2023-02-11T05:29:53;42.47;;;6.22;;
64597;SDS011;51004;54.692;9.332;2023-02-11T05:32:19;34.13;;;6.22;;
64597;SDS011;51004;54.692;9.332;2023-02-11T05:34:45;41.65;;;7.40;;
64597;SDS011;51004;54.692;9.332;2023-02-11T05:37:11;39.08;;;5.80;;
64597;SDS011;51004;54.692;9.332;2023-02-11T05:39:37;42.95;;;6.28;;
64597;SDS011;51004;54.692;9.332;2023-02-11T05:42:03;38.67;;;6.82;;
64597;SDS011;51004;54.692;9.332;2023-02-11T05:44:29;39.80;;;7.03;;
64597;SDS011;51004;54.692;9.332;2023-02-11T05:46:55;39.22;;;5.80;;
64597;SDS011;51004;54.692;9.332;2023-02-11T05:49:21;41.50;;;7.25;;
64597;SDS011;51004;54.692;9.332;2023-02-11T05:51:47;41.28;;;6.05;;
64597;SDS011;51004;54.692;9.332;2023-02-11T05:54:13;35.45;;;6.20;;
64597;SDS011;51004;54.692;9.332;2023-02-11T05:56:39;36.60;;;7.03;;
64597;SDS011;51004;54.692;9.332;2023-02-11T05:59:05;43.30;;;7.40;;
64597;SDS011;51004;54.692;9.332;2023-02-11T06:01:31;40.92;;;7.55;;
64597;SDS011;51004;54.692;9.332;2023-02-11T06:03:57;39.83;;;6.05;;
64597;SDS011;51004;54.692;9.332;2023-02-11T06:06:23;42.55;;;6.82;;
64597;SDS011;51004;54.692;9.332;2023-02-11T06:08:49;33.53;;;5.15;;
64597;SDS011;51004;54.692;9.332;2023-02-11T06:11:15;40.75;;;7.53;;
64597;SDS011;51004;54.692;9.332;2023-02-11T06:13:41;32.92;;;5.18;;
64597;SDS011;51004;54.692;9.332;2023-02-11T06:16:07;33.95;;;6.93;;
64597;SDS011;51004;54.692;9.332;2023-02-11T06:18:34;31.10;;;5.43;;
64597;SDS011;51004;54.692;9.332;2023-02-11T06:21:00;37.25;;;5.72;;
64597;SDS011;51004;54.692;9.332;2023-02-11T06:23:26;38.22;;;6.18;;
64597;SDS011;51004;54.692;9.332;2023-02-11T06:25:52;34.55;;;5.20;;
64597;SDS011;51004;54.692;9.332;2023-02-11T06:28:18;30.58;;;5.30;;
64597;SDS011;51004;54.692;9.332;2023-02-11T06:30:44;33.10;;;5.70;;
64597;SDS011;51004;54.692;9.332;2023-02-11T06:33:10;31.10;;;4.97;;
64597;SDS011;51004;54.692;9.332;2023-02-11T06:35:39;35.55;;;5.60;;
64597;SDS011;51004;54.692;9.332;2023-02-11T06:38:05;35.58;;;5.70;;
64597;SDS011;51004;54.692;9.332;2023-02-11T06:40:31;38.17;;;6.18;;
64597;SDS011;51004;54.692;9.332;2023-02-11T06:42:57;37.22;;;5.82;;
64597;SDS011;51004;54.692;9.332;2023-02-11T06:45:23;34.03;;;6.00;;
64597;SDS011;51004;54.692;9.332;2023-02-11T06:47:50;38.60;;;6.38;;
64597;SDS011;51004;54.692;9.332;2023-02-11T06:50:16;31.98;;;6.28;;
64597;SDS011;51004;54.692;9.332;2023-02-11T06:52:42;31.10;;;5.57;;
64597;SDS011;51004;54.692;9.332;2023-02-11T06:55:08;37.45;;;6.88;;
64597;SDS011;51004;54.692;9.332;2023-02-11T06:57:34;35.65;;;6.43;;
64597;SDS011;51004;54.692;9.332;2023-02-11T07:00:00;37.17;;;5.53;;
64597;SDS011;51004;54.692;9.332;2023-02-11T07:02:26;43.75;;;6.50;;
64597;SDS011;51004;54.692;9.332;2023-02-11T07:04:52;40.22;;;7.05;;
64597;SDS011;51004;54.692;9.332;2023-02-11T07:07:18;33.70;;;6.35;;
64597;SDS011;51004;54.692;9.332;2023-02-11T07:09:44;38.05;;;5.55;;
64597;SDS011;51004;54.692;9.332;2023-02-11T07:12:10;40.40;;;7.13;;
64597;SDS011;51004;54.692;9.332;2023-02-11T07:14:36;41.45;;;6.90;;
64597;SDS011;51004;54.692;9.332;2023-02-11T07:17:02;49.15;;;7.00;;
64597;SDS011;51004;54.692;9.332;2023-02-11T07:19:29;40.58;;;5.68;;
64597;SDS011;51004;54.692;9.332;2023-02-11T07:21:55;40.45;;;7.78;;
64597;SDS011;51004;54.692;9.332;2023-02-11T07:24:21;33.60;;;6.22;;
64597;SDS011;51004;54.692;9.332;2023-02-11T07:26:47;38.25;;;5.90;;
64597;SDS011;51004;54.692;9.332;2023-02-11T07:29:13;44.63;;;7.07;;
64597;SDS011;51004;54.692;9.332;2023-02-11T07:31:39;47.65;;;7.85;;
64597;SDS011;51004;54.692;9.332;2023-02-11T07:34:05;42.08;;;6.05;;
64597;SDS011;51004;54.692;9.332;2023-02-11T07:36:31;43.05;;;6.05;;
64597;SDS011;51004;54.692;9.332;2023-02-11T07:38:57;36.67;;;5.88;;
64597;SDS011;51004;54.692;9.332;2023-02-11T07:41:24;46.08;;;6.57;;
64597;SDS011;51004;54.692;9.332;2023-02-11T07:43:50;35.75;;;5.82;;
64597;SDS011;51004;54.692;9.332;2023-02-11T07:46:21;38.83;;;6.85;;
64597;SDS011;51004;54.692;9.332;2023-02-11T07:48:47;46.60;;;5.60;;
64597;SDS011;51004;54.692;9.332;2023-02-11T07:51:14;42.90;;;5.85;;
64597;SDS011;51004;54.692;9.332;2023-02-11T07:53:40;36.88;;;5.45;;
64597;SDS011;51004;54.692;9.332;2023-02-11T07:56:07;37.75;;;6.05;;
64597;SDS011;51004;54.692;9.332;2023-02-11T07:58:34;39.08;;;7.22;;
64597;SDS011;51004;54.692;9.332;2023-02-11T08:01:01;40.15;;;5.07;;
64597;SDS011;51004;54.692;9.332;2023-02-11T08:03:27;37.22;;;6.85;;
64597;SDS011;51004;54.692;9.332;2023-02-11T08:05:53;37.15;;;5.38;;
64597;SDS011;51004;54.692;9.332;2023-02-11T08:08:19;42.30;;;5.63;;
64597;SDS011;51004;54.692;9.332;2023-02-11T08:10:45;44.83;;;6.22;;
64597;SDS011;51004;54.692;9.332;2023-02-11T08:13:11;49.30;;;6.85;;
64597;SDS011;51004;54.692;9.332;2023-02-11T08:15:37;48.92;;;6.05;;
64597;SDS011;51004;54.692;9.332;2023-02-11T08:18:03;47.22;;;7.38;;
64597;SDS011;51004;54.692;9.332;2023-02-11T08:20:29;40.20;;;5.68;;
64597;SDS011;51004;54.692;9.332;2023-02-11T08:22:55;29.77;;;5.07;;
64597;SDS011;51004;54.692;9.332;2023-02-11T08:25:21;36.97;;;5.13;;
64597;SDS011;51004;54.692;9.332;2023-02-11T08:27:47;35.78;;;5.65;;
64597;SDS011;51004;54.692;9.332;2023-02-11T08:30:13;45.92;;;5.70;;
64597;SDS011;51004;54.692;9.332;2023-02-11T08:32:38;34.05;;;5.13;;
64597;SDS011;51004;54.692;9.332;2023-02-11T08:35:05;49.08;;;6.35;;
64597;SDS011;51004;54.692;9.332;2023-02-11T08:37:32;36.20;;;5.78;;
64597;SDS011;51004;54.692;9.332;2023-02-11T08:39:58;51.63;;;6.53;;
64597;SDS011;51004;54.692;9.332;2023-02-11T08:42:24;43.92;;;6.28;;
64597;SDS011;51004;54.692;9.332;2023-02-11T08:44:50;49.42;;;7.15;;
64597;SDS011;51004;54.692;9.332;2023-02-11T08:47:16;50.10;;;8.27;;
64597;SDS011;51004;54.692;9.332;2023-02-11T08:49:42;45.20;;;6.30;;
64597;SDS011;51004;54.692;9.332;2023-02-11T08:52:08;42.08;;;6.57;;
64597;SDS011;51004;54.692;9.332;2023-02-11T08:54:34;41.58;;;5.30;;
64597;SDS011;51004;54.692;9.332;2023-02-11T08:57:01;42.40;;;6.65;;
64597;SDS011;51004;54.692;9.332;2023-02-11T08:59:27;38.40;;;5.03;;
64597;SDS011;51004;54.692;9.332;2023-02-11T09:01:53;53.83;;;7.57;;
64597;SDS011;51004;54.692;9.332;2023-02-11T09:04:19;42.85;;;6.18;;
64597;SDS011;51004;54.692;9.332;2023-02-11T09:06:45;48.47;;;7.30;;
64597;SDS011;51004;54.692;9.332;2023-02-11T09:09:12;42.88;;;6.57;;
64597;SDS011;51004;54.692;9.332;2023-02-11T09:11:39;45.25;;;6.65;;
64597;SDS011;51004;54.692;9.332;2023-02-11T09:14:06;37.67;;;4.95;;
64597;SDS011;51004;54.692;9.332;2023-02-11T09:16:33;39.47;;;7.10;;
64597;SDS011;51004;54.692;9.332;2023-02-11T09:18:59;42.85;;;6.10;;
64597;SDS011;51004;54.692;9.332;2023-02-11T09:21:25;45.05;;;6.82;;
64597;SDS011;51004;54.692;9.332;2023-02-11T09:23:52;38.90;;;6.38;;
64597;SDS011;51004;54.692;9.332;2023-02-11T09:26:19;45.13;;;6.18;;
64597;SDS011;51004;54.692;9.332;2023-02-11T09:28:45;46.60;;;6.65;;
64597;SDS011;51004;54.692;9.332;2023-02-11T09:31:12;42.60;;;7.32;;
64597;SDS011;51004;54.692;9.332;2023-02-11T09:33:40;34.03;;;5.95;;
64597;SDS011;51004;54.692;9.332;2023-02-11T09:36:11;41.00;;;6.35;;
64597;SDS011;51004;54.692;9.332;2023-02-11T09:38:38;37.33;;;5.63;;
64597;SDS011;51004;54.692;9.332;2023-02-11T09:41:04;41.47;;;6.28;;
64597;SDS011;51004;54.692;9.332;2023-02-11T09:43:36;39.63;;;7.00;;
64597;SDS011;51004;54.692;9.332;2023-02-11T09:46:07;41.03;;;6.60;;
64597;SDS011;51004;54.692;9.332;2023-02-11T09:48:37;34.53;;;5.47;;
64597;SDS011;51004;54.692;9.332;2023-02-11T09:51:05;42.75;;;5.38;;
64597;SDS011;51004;54.692;9.332;2023-02-11T09:53:39;34.60;;;4.93;;
64597;SDS011;51004;54.692;9.332;2023-02-11T09:56:10;37.25;;;5.95;;
64597;SDS011;51004;54.692;9.332;2023-02-11T09:58:40;44.45;;;5.85;;
64597;SDS011;51004;54.692;9.332;2023-02-11T10:06:40;32.55;;;5.90;;
64597;SDS011;51004;54.692;9.332;2023-02-11T10:22:05;30.52;;;5.13;;
64597;SDS011;51004;54.692;9.332;2023-02-11T10:24:33;28.08;;;5.75;;
64597;SDS011;51004;54.692;9.332;2023-02-11T10:27:00;26.05;;;4.80;;
64597;SDS011;51004;54.692;9.332;2023-02-11T10:31:59;31.95;;;5.68;;
64597;SDS011;51004;54.692;9.332;2023-02-11T10:34:26;24.95;;;5.38;;
64597;SDS011;51004;54.692;9.332;2023-02-11T10:36:52;30.25;;;5.07;;
64597;SDS011;51004;54.692;9.332;2023-02-11T10:39:20;31.40;;;5.32;;
64597;SDS011;51004;54.692;9.332;2023-02-11T10:44:29;30.65;;;4.68;;
64597;SDS011;51004;54.692;9.332;2023-02-11T10:46:56;28.98;;;5.18;;
64597;SDS011;51004;54.692;9.332;2023-02-11T10:49:34;22.45;;;4.43;;
64597;SDS011;51004;54.692;9.332;2023-02-11T10:57:35;26.20;;;3.63;;
64597;SDS011;51004;54.692;9.332;2023-02-11T11:00:07;28.52;;;4.55;;
64597;SDS011;51004;54.692;9.332;2023-02-11T11:02:44;20.55;;;4.00;;
64597;SDS011;51004;54.692;9.332;2023-02-11T11:05:15;23.52;;;3.85;;
64597;SDS011;51004;54.692;9.332;2023-02-11T11:07:50;32.05;;;4.30;;
64597;SDS011;51004;54.692;9.332;2023-02-11T11:10:27;20.33;;;4.10;;
64597;SDS011;51004;54.692;9.332;2023-02-11T11:12:53;18.73;;;3.45;;
64597;SDS011;51004;54.692;9.332;2023-02-11T11:15:21;21.88;;;3.63;;
64597;SDS011;51004;54.692;9.332;2023-02-11T11:17:48;22.42;;;4.15;;
64597;SDS011;51004;54.692;9.332;2023-02-11T11:20:32;24.05;;;4.55;;
64597;SDS011;51004;54.692;9.332;2023-02-11T11:23:14;23.48;;;3.42;;
64597;SDS011;51004;54.692;9.332;2023-02-11T11:25:42;22.05;;;3.78;;
64597;SDS011;51004;54.692;9.332;2023-02-11T11:28:21;23.02;;;3.85;;
64597;SDS011;51004;54.692;9.332;2023-02-11T11:30:48;20.73;;;4.28;;
64597;SDS011;51004;54.692;9.332;2023-02-11T11:33:19;20.88;;;3.83;;
64597;SDS011;51004;54.692;9.332;2023-02-11T11:35:54;16.65;;;2.85;;
64597;SDS011;51004;54.692;9.332;2023-02-11T11:38:20;16.42;;;2.78;;
64597;SDS011;51004;54.692;9.332;2023-02-11T11:40:46;29.27;;;2.97;;
64597;SDS011;51004;54.692;9.332;2023-02-11T11:43:32;28.25;;;4.65;;
64597;SDS011;51004;54.692;9.332;2023-02-11T11:45:58;16.30;;;2.25;;
64597;SDS011;51004;54.692;9.332;2023-02-11T11:48:40;16.02;;;3.53;;
64597;SDS011;51004;54.692;9.332;2023-02-11T11:51:10;19.63;;;3.22;;
64597;SDS011;51004;54.692;9.332;2023-02-11T11:53:41;17.70;;;3.72;;
64597;SDS011;51004;54.692;9.332;2023-02-11T11:56:13;19.73;;;3.28;;
64597;SDS011;51004;54.692;9.332;2023-02-11T11:58:39;19.13;;;4.38;;
64597;SDS011;51004;54.692;9.332;2023-02-11T12:14:11;9.73;;;2.40;;
64597;SDS011;51004;54.692;9.332;2023-02-11T12:22:02;12.65;;;2.25;;
64597;SDS011;51004;54.692;9.332;2023-02-11T12:24:48;14.73;;;3.47;;
64597;SDS011;51004;54.692;9.332;2023-02-11T12:30:48;13.10;;;2.30;;
64597;SDS011;51004;54.692;9.332;2023-02-11T12:40:34;9.43;;;2.40;;
64597;SDS011;51004;54.692;9.332;2023-02-11T12:56:11;6.65;;;1.90;;
64597;SDS011;51004;54.692;9.332;2023-02-11T12:58:39;11.02;;;2.78;;
64597;SDS011;51004;54.692;9.332;2023-02-11T13:01:08;7.63;;;1.85;;
64597;SDS011;51004;54.692;9.332;2023-02-11T13:03:39;16.95;;;2.58;;
64597;SDS011;51004;54.692;9.332;2023-02-11T13:06:15;13.38;;;2.95;;
64597;SDS011;51004;54.692;9.332;2023-02-11T13:08:45;12.20;;;2.33;;
64597;SDS011;51004;54.692;9.332;2023-02-11T13:11:13;7.65;;;2.22;;
64597;SDS011;51004;54.692;9.332;2023-02-11T13:16:19;9.82;;;2.67;;
64597;SDS011;51004;54.692;9.332;2023-02-11T13:21:30;12.40;;;2.10;;
64597;SDS011;51004;54.692;9.332;2023-02-11T13:26:44;8.25;;;1.60;;
64597;SDS011;51004;54.692;9.332;2023-02-11T13:31:38;10.38;;;2.00;;
64597;SDS011;51004;54.692;9.332;2023-02-11T13:34:19;11.55;;;2.47;;
64597;SDS011;51004;54.692;9.332;2023-02-11T13:36:54;9.00;;;1.85;;
64597;SDS011;51004;54.692;9.332;2023-02-11T13:39:20;11.13;;;2.20;;
64597;SDS011;51004;54.692;9.332;2023-02-11T13:41:46;9.98;;;2.20;;
64597;SDS011;51004;54.692;9.332;2023-02-11T13:49:29;12.07;;;2.22;;
64597;SDS011;51004;54.692;9.332;2023-02-11T13:51:56;7.18;;;2.40;;
64597;SDS011;51004;54.692;9.332;2023-02-11T13:54:27;11.95;;;3.20;;
64597;SDS011;51004;54.692;9.332;2023-02-11T14:02:26;7.75;;;2.00;;
64597;SDS011;51004;54.692;9.332;2023-02-11T14:13:31;12.13;;;2.40;;
64597;SDS011;51004;54.692;9.332;2023-02-11T14:21:21;10.27;;;2.37;;
64597;SDS011;51004;54.692;9.332;2023-02-11T14:23:49;12.02;;;2.42;;
64597;SDS011;51004;54.692;9.332;2023-02-11T14:28:43;8.15;;;2.30;;
64597;SDS011;51004;54.692;9.332;2023-02-11T14:31:17;12.30;;;2.72;;
64597;SDS011;51004;54.692;9.332;2023-02-11T14:41:43;9.63;;;2.15;;
64597;SDS011;51004;54.692;9.332;2023-02-11T14:44:17;8.13;;;1.95;;
64597;SDS011;51004;54.692;9.332;2023-02-11T14:49:20;9.20;;;2.03;;
64597;SDS011;51004;54.692;9.332;2023-02-11T14:51:49;9.82;;;2.88;;
64597;SDS011;51004;54.692;9.332;2023-02-11T14:54:16;11.13;;;2.83;;
64597;SDS011;51004;54.692;9.332;2023-02-11T14:56:43;9.68;;;2.60;;
64597;SDS011;51004;54.692;9.332;2023-02-11T14:59:21;7.93;;;1.70;;
64597;SDS011;51004;54.692;9.332;2023-02-11T15:01:48;10.30;;;2.03;;
64597;SDS011;51004;54.692;9.332;2023-02-11T15:04:24;11.57;;;2.58;;
64597;SDS011;51004;54.692;9.332;2023-02-11T15:06:51;10.32;;;2.22;;
64597;SDS011;51004;54.692;9.332;2023-02-11T15:09:18;7.78;;;2.15;;
64597;SDS011;51004;54.692;9.332;2023-02-11T15:11:48;14.18;;;3.08;;
64597;SDS011;51004;54.692;9.332;2023-02-11T15:16:50;7.95;;;2.20;;
64597;SDS011;51004;54.692;9.332;2023-02-11T15:19:25;7.70;;;2.20;;
64597;SDS011;51004;54.692;9.332;2023-02-11T15:21:52;6.88;;;1.60;;
64597;SDS011;51004;54.692;9.332;2023-02-11T15:26:44;10.85;;;2.00;;
64597;SDS011;51004;54.692;9.332;2023-02-11T15:29:17;10.95;;;3.00;;
64597;SDS011;51004;54.692;9.332;2023-02-11T15:31:43;12.57;;;3.08;;
64597;SDS011;51004;54.692;9.332;2023-02-11T15:34:10;10.07;;;3.30;;
64597;SDS011;51004;54.692;9.332;2023-02-11T15:36:36;9.38;;;2.10;;
64597;SDS011;51004;54.692;9.332;2023-02-11T15:39:15;9.30;;;2.40;;
64597;SDS011;51004;54.692;9.332;2023-02-11T15:41:41;9.43;;;2.92;;
64597;SDS011;51004;54.692;9.332;2023-02-11T15:44:25;12.05;;;2.28;;
64597;SDS011;51004;54.692;9.332;2023-02-11T15:46:51;9.20;;;2.22;;
64597;SDS011;51004;54.692;9.332;2023-02-11T15:49:17;5.97;;;2.10;;
64597;SDS011;51004;54.692;9.332;2023-02-11T15:51:45;9.98;;;1.83;;
64597;SDS011;51004;54.692;9.332;2023-02-11T15:54:21;7.68;;;2.88;;
64597;SDS011;51004;54.692;9.332;2023-02-11T15:56:50;9.05;;;2.03;;
64597;SDS011;51004;54.692;9.332;2023-02-11T16:01:43;6.85;;;2.55;;
64597;SDS011;51004;54.692;9.332;2023-02-11T16:04:16;5.40;;;2.10;;
64597;SDS011;51004;54.692;9.332;2023-02-11T16:06:43;9.35;;;1.92;;
64597;SDS011;51004;54.692;9.332;2023-02-11T16:14:29;7.75;;;1.80;;
64597;SDS011;51004;54.692;9.332;2023-02-11T16:17:04;9.00;;;2.10;;
64597;SDS011;51004;54.692;9.332;2023-02-11T16:19:31;6.03;;;1.85;;
64597;SDS011;51004;54.692;9.332;2023-02-11T16:21:58;7.15;;;1.98;;
64597;SDS011;51004;54.692;9.332;2023-02-11T16:24:26;6.22;;;2.58;;
64597;SDS011;51004;54.692;9.332;2023-02-11T16:26:53;4.75;;;2.17;;
64597;SDS011;51004;54.692;9.332;2023-02-11T16:29:24;7.18;;;4.20;;
64597;SDS011;51004;54.692;9.332;2023-02-11T16:31:51;7.25;;;1.88;;
64597;SDS011;51004;54.692;9.332;2023-02-11T16:34:24;6.00;;;2.47;;
64597;SDS011;51004;54.692;9.332;2023-02-11T16:36:50;9.55;;;4.57;;
64597;SDS011;51004;54.692;9.332;2023-02-11T16:39:17;5.28;;;2.53;;
64597;SDS011;51004;54.692;9.332;2023-02-11T16:41:46;6.57;;;2.30;;
64597;SDS011;51004;54.692;9.332;2023-02-11T16:44:14;6.28;;;2.10;;
64597;SDS011;51004;54.692;9.332;2023-02-11T16:46:40;5.22;;;2.10;;
64597;SDS011;51004;54.692;9.332;2023-02-11T16:49:10;4.30;;;1.88;;
64597;SDS011;51004;54.692;9.332;2023-02-11T16:51:38;4.15;;;1.90;;
64597;SDS011;51004;54.692;9.332;2023-02-11T16:54:05;5.93;;;2.03;;
64597;SDS011;51004;54.692;9.332;2023-02-11T16:56:31;4.97;;;1.40;;
64597;SDS011;51004;54.692;9.332;2023-02-11T16:58:57;3.58;;;1.77;;
64597;SDS011;51004;54.692;9.332;2023-02-11T17:01:23;4.45;;;1.73;;
64597;SDS011;51004;54.692;9.332;2023-02-11T17:03:49;5.18;;;1.30;;
64597;SDS011;51004;54.692;9.332;2023-02-11T17:06:15;3.03;;;1.20;;
64597;SDS011;51004;54.692;9.332;2023-02-11T17:08:41;4.32;;;1.55;;
64597;SDS011;51004;54.692;9.332;2023-02-11T17:11:08;3.40;;;1.40;;
64597;SDS011;51004;54.692;9.332;2023-02-11T17:13:34;3.00;;;1.65;;
64597;SDS011;51004;54.692;9.332;2023-02-11T17:16:00;4.13;;;1.70;;
64597;SDS011;51004;54.692;9.332;2023-02-11T17:18:26;3.05;;;1.17;;
64597;SDS011;51004;54.692;9.332;2023-02-11T17:20:53;2.03;;;1.27;;
64597;SDS011;51004;54.692;9.332;2023-02-11T17:23:19;4.80;;;1.52;;
64597;SDS011;51004;54.692;9.332;2023-02-11T17:25:45;2.88;;;1.30;;